Time;durP1;ratioP1;P1;durP2;ratioP2;P2;SDS_P1;SDS_P2;PMS_P1;PMS_P2;Temp;Humidity;BMP_temperature;BMP_pressure;BME280_temperature;BME280_humidity;BME280_pressure;Samples;Min_cycle;Max_cycle;Signal;HPM_P1;HPM_P2
2022/11/07 00:02:24;;;;;;;4.60;4.20;;;;;;;9.27;79.70;99976.97;5006493;28;20209;-83
2022/11/07 00:04:51;;;;;;;4.27;3.63;;;;;;;9.35;79.79;99969.84;5006967;28;20219;-84
2022/11/07 00:07:17;;;;;;;4.00;3.70;;;;;;;9.37;79.90;99973.28;5007264;28;20227;-80
2022/11/07 00:09:43;;;;;;;3.97;3.67;;;;;;;9.26;80.05;99975.28;5007073;28;20210;-83
2022/11/07 00:12:10;;;;;;;3.70;3.40;;;;;;;9.33;79.92;99975.09;5006645;28;20205;-83
2022/11/07 00:14:38;;;;;;;4.00;3.70;;;;;;;9.30;79.92;99985.59;5007504;28;20229;-81
2022/11/07 00:17:04;;;;;;;3.97;3.57;;;;;;;9.26;79.81;99990.91;5006925;28;20234;-81
2022/11/07 00:19:31;;;;;;;3.67;3.40;;;;;;;9.33;80.63;99966.44;5007010;28;20219;-83
2022/11/07 00:21:57;;;;;;;4.00;3.70;;;;;;;9.31;80.01;99976.03;5006594;28;20213;-81
2022/11/07 00:24:23;;;;;;;3.90;3.57;;;;;;;9.30;80.50;99977.78;5006805;28;20630;-82
2022/11/07 00:26:50;;;;;;;3.70;3.30;;;;;;;9.25;80.43;99983.97;5006510;28;20232;-81
2022/11/07 00:29:18;;;;;;;3.43;3.13;;;;;;;9.33;80.79;99969.03;5005984;28;20206;-81
2022/11/07 00:31:47;;;;;;;3.97;3.67;;;;;;;9.37;80.22;99960.25;5006226;28;20215;-83
2022/11/07 00:34:14;;;;;;;3.63;3.33;;;;;;;9.44;81.02;99955.78;5006524;28;20314;-82
2022/11/07 00:36:41;;;;;;;3.10;2.90;;;;;;;9.41;80.44;99959.28;5006856;28;20238;-82
2022/11/07 00:39:08;;;;;;;3.07;2.87;;;;;;;9.51;80.63;99972.97;5007033;28;20216;-81
2022/11/07 00:41:34;;;;;;;2.80;2.60;;;;;;;9.58;80.12;99971.97;5006436;28;20204;-82
2022/11/07 00:44:00;;;;;;;2.70;2.43;;;;;;;9.61;80.08;99990.13;5007422;28;20207;-83
2022/11/07 00:46:27;;;;;;;3.27;2.60;;;;;;;9.63;79.71;99996.19;5006469;28;20240;-82
2022/11/07 00:48:55;;;;;;;2.37;2.20;;;;;;;9.70;80.03;99995.13;5006399;28;20206;-83
2022/11/07 00:51:24;;;;;;;2.90;2.70;;;;;;;9.76;79.49;100014.16;5005701;28;20215;-82
2022/11/07 00:53:50;;;;;;;3.10;2.80;;;;;;;9.77;79.21;100010.63;5005712;28;20228;-81
2022/11/07 00:56:19;;;;;;;2.63;2.17;;;;;;;9.81;79.48;100014.88;5006344;28;20258;-79
2022/11/07 00:58:45;;;;;;;2.70;2.47;;;;;;;9.83;79.17;100032.22;5005226;28;20209;-81
2022/11/07 01:01:14;;;;;;;3.00;2.80;;;;;;;9.82;79.39;100038.31;5005070;28;20218;-82
2022/11/07 01:06:28;;;;;;;4.23;2.50;;;;;;;9.93;79.02;100056.34;5005483;28;20245;-80
2022/11/07 01:08:55;;;;;;;3.23;2.60;;;;;;;9.93;78.96;100054.59;5005579;28;20218;-81
2022/11/07 01:11:22;;;;;;;2.73;2.53;;;;;;;9.89;79.08;100065.97;5005179;28;20231;-81
2022/11/07 01:13:49;;;;;;;2.93;2.30;;;;;;;9.93;78.84;100058.94;5004633;28;20238;-81
2022/11/07 01:16:15;;;;;;;2.53;2.23;;;;;;;10.00;78.92;100078.75;5005124;28;20716;-80
2022/11/07 01:18:42;;;;;;;2.90;2.60;;;;;;;9.98;78.95;100085.75;5005020;28;20572;-81
2022/11/07 01:21:09;;;;;;;3.20;2.20;;;;;;;10.01;78.80;100083.09;5004419;28;20692;-82
2022/11/07 01:23:37;;;;;;;2.57;2.40;;;;;;;10.06;78.58;100082.97;5004738;28;20222;-80
2022/11/07 01:26:05;;;;;;;4.57;2.20;;;;;;;10.09;78.63;100094.22;5003646;28;20234;-82
2022/11/07 01:28:32;;;;;;;2.60;2.40;;;;;;;10.13;78.38;100085.41;5005279;28;20210;-81
2022/11/07 01:30:58;;;;;;;2.37;2.17;;;;;;;10.13;78.52;100087.19;5003963;28;20239;-81
2022/11/07 01:33:24;;;;;;;2.80;2.13;;;;;;;10.18;78.06;100100.94;5004506;28;20203;-82
2022/11/07 01:35:51;;;;;;;3.03;2.40;;;;;;;10.17;77.90;100112.28;5004584;28;20236;-81
2022/11/07 01:38:17;;;;;;;2.43;2.23;;;;;;;10.24;78.14;100116.47;5004431;28;20211;-81
2022/11/07 01:43:43;;;;;;;2.37;2.00;;;;;;;10.12;77.98;100125.41;4979371;28;20246;-83
2022/11/07 01:46:10;;;;;;;2.47;2.10;;;;;;;10.22;78.44;100122.63;5005142;28;20228;-82
2022/11/07 01:48:36;;;;;;;2.67;2.00;;;;;;;10.19;78.28;100133.09;5005367;28;20208;-80
2022/11/07 01:51:04;;;;;;;2.57;2.07;;;;;;;10.18;77.98;100124.44;5004236;28;20216;-81
2022/11/07 01:53:31;;;;;;;2.03;1.90;;;;;;;10.26;77.97;100132.09;5004492;28;20217;-81
2022/11/07 01:55:58;;;;;;;2.50;2.30;;;;;;;10.17;77.37;100138.38;5003746;28;20241;-83
2022/11/07 01:58:25;;;;;;;2.53;2.07;;;;;;;10.18;77.45;100145.28;5004370;28;20214;-80
2022/11/07 02:00:52;;;;;;;3.00;2.30;;;;;;;10.24;77.51;100147.75;5005065;28;20703;-81
2022/11/07 02:03:21;;;;;;;3.70;2.10;;;;;;;10.21;77.57;100147.84;5004460;28;20220;-82
2022/11/07 02:05:52;;;;;;;2.53;1.93;;;;;;;10.26;78.16;100140.75;5004463;28;20230;-80
2022/11/07 02:08:19;;;;;;;2.67;2.10;;;;;;;10.22;77.89;100143.47;5005268;28;20214;-81
2022/11/07 02:10:46;;;;;;;2.10;1.97;;;;;;;10.30;78.06;100142.44;5003482;28;20801;-79
2022/11/07 02:13:19;;;;;;;2.93;2.03;;;;;;;10.34;77.65;100143.22;5004436;28;20217;-81
2022/11/07 02:15:46;;;;;;;2.33;2.17;;;;;;;10.33;77.49;100160.66;5004159;28;20240;-81
2022/11/07 02:18:13;;;;;;;1.83;1.73;;;;;;;10.36;77.73;100156.25;5004386;28;20221;-79
2022/11/07 02:20:39;;;;;;;2.43;2.20;;;;;;;10.36;77.54;100151.03;5004052;28;20705;-81
2022/11/07 02:23:11;;;;;;;2.57;2.37;;;;;;;10.34;77.47;100146.69;5009060;28;20208;-81
2022/11/07 02:25:39;;;;;;;2.20;2.00;;;;;;;10.28;77.55;100159.00;5008023;28;20234;-81
2022/11/07 02:28:10;;;;;;;3.03;2.60;;;;;;;10.28;77.55;100154.63;5007668;28;20575;-80
2022/11/07 02:30:37;;;;;;;2.30;1.77;;;;;;;10.39;77.52;100150.97;5008204;28;20205;-82
2022/11/07 02:33:15;;;;;;;2.27;1.80;;;;;;;10.33;77.57;100145.00;5008112;28;20204;-83
2022/11/07 02:35:44;;;;;;;2.70;2.10;;;;;;;10.39;77.57;100148.38;5008167;28;20812;-81
2022/11/07 02:38:13;;;;;;;1.93;1.83;;;;;;;10.36;77.85;100132.78;5007135;28;20211;-82
2022/11/07 02:40:44;;;;;;;2.10;1.90;;;;;;;10.36;77.84;100136.22;5007648;28;20209;-80
2022/11/07 02:43:12;;;;;;;2.33;2.13;;;;;;;10.38;77.52;100130.97;5007736;28;20206;-82
2022/11/07 02:45:44;;;;;;;1.70;1.60;;;;;;;10.46;77.58;100144.69;5007934;28;20226;-82
2022/11/07 02:48:10;;;;;;;3.10;2.10;;;;;;;10.43;77.38;100139.56;5007380;28;20229;-82
2022/11/07 02:50:38;;;;;;;1.90;1.63;;;;;;;10.47;77.55;100139.44;5007423;28;20221;-80
2022/11/07 02:53:04;;;;;;;1.70;1.60;;;;;;;10.43;77.67;100150.84;5007808;28;20221;-82
2022/11/07 02:55:30;;;;;;;2.57;1.50;;;;;;;10.37;78.16;100137.09;5006855;28;20231;-83
2022/11/07 02:57:58;;;;;;;3.50;1.60;;;;;;;10.42;78.21;100133.47;5007110;28;20215;-83
2022/11/07 03:00:25;;;;;;;2.17;1.60;;;;;;;10.51;77.82;100135.88;5007622;28;20212;-79
2022/11/07 03:02:52;;;;;;;1.73;1.57;;;;;;;10.45;77.23;100137.78;5007262;28;20264;-83
2022/11/07 03:05:19;;;;;;;3.07;1.30;;;;;;;10.49;77.82;100139.44;5007511;28;20217;-81
2022/11/07 03:07:48;;;;;;;2.13;1.80;;;;;;;10.47;77.95;100133.38;5006822;28;20216;-81
2022/11/07 03:10:16;;;;;;;2.23;1.53;;;;;;;10.42;77.76;100137.84;5006987;28;20217;-81
2022/11/07 03:12:42;;;;;;;2.67;1.60;;;;;;;10.43;77.76;100131.75;5006830;28;20215;-80
2022/11/07 03:15:12;;;;;;;3.73;1.80;;;;;;;10.48;78.20;100116.81;5007320;28;20229;-82
2022/11/07 03:17:38;;;;;;;4.27;2.53;;;;;;;10.53;77.89;100125.41;5007790;28;20214;-81
2022/11/07 03:20:06;;;;;;;2.40;1.73;;;;;;;10.45;78.16;100129.97;5006758;28;20211;-80
2022/11/07 03:22:32;;;;;;;1.87;1.53;;;;;;;10.41;78.43;100128.31;5007856;28;20218;-80
2022/11/07 03:24:59;;;;;;;2.43;1.87;;;;;;;10.49;78.09;100123.78;5008004;28;20211;-80
2022/11/07 03:27:26;;;;;;;2.10;1.67;;;;;;;10.47;78.11;100122.94;5007134;28;20768;-82
2022/11/07 03:29:52;;;;;;;1.90;1.50;;;;;;;10.44;78.12;100121.25;5007193;28;20538;-82
2022/11/07 03:32:21;;;;;;;6.53;1.60;;;;;;;10.52;78.11;100126.28;5006072;28;20215;-82
2022/11/07 03:34:48;;;;;;;2.47;1.80;;;;;;;10.50;77.89;100138.50;5007056;28;20596;-81
2022/11/07 03:37:14;;;;;;;2.97;1.67;;;;;;;10.49;78.07;100136.81;5007242;28;20240;-82
2022/11/07 03:39:40;;;;;;;1.60;1.23;;;;;;;10.55;77.71;100139.28;5007051;28;20214;-83
2022/11/07 03:42:07;;;;;;;2.23;1.20;;;;;;;10.59;78.67;100134.84;5007124;28;20218;-84
2022/11/07 03:44:33;;;;;;;1.60;1.50;;;;;;;10.63;78.12;100139.09;5007475;28;20211;-83
2022/11/07 03:47:00;;;;;;;1.40;1.30;;;;;;;10.63;77.49;100149.53;5006488;28;20249;-82
2022/11/07 03:49:27;;;;;;;2.00;1.40;;;;;;;10.70;77.89;100143.25;5006686;28;20577;-80
2022/11/07 03:51:54;;;;;;;2.17;1.40;;;;;;;10.64;77.56;100153.84;5005904;28;20714;-80
2022/11/07 03:54:20;;;;;;;1.70;1.50;;;;;;;10.69;77.63;100158.06;5006787;28;20659;-79
2022/11/07 03:56:47;;;;;;;2.43;2.23;;;;;;;10.60;77.70;100162.66;5005856;28;20857;-81
2022/11/07 03:59:13;;;;;;;1.57;1.33;;;;;;;10.68;78.16;100153.75;5006649;28;20227;-81
2022/11/07 04:01:40;;;;;;;2.33;1.50;;;;;;;10.69;77.66;100152.00;5005644;28;20216;-82
2022/11/07 04:04:06;;;;;;;1.90;1.20;;;;;;;10.67;77.78;100152.03;5006098;28;20211;-82
2022/11/07 04:06:34;;;;;;;2.50;1.00;;;;;;;10.58;77.66;100149.63;5005691;28;20231;-81
2022/11/07 04:09:00;;;;;;;1.80;1.40;;;;;;;10.62;78.06;100151.28;5006636;28;20210;-82
2022/11/07 04:19:39;;;;;;;2.13;1.60;;;;;;;10.57;78.51;100139.25;5006425;28;20278;-83
2022/11/07 04:22:07;;;;;;;2.70;1.20;;;;;;;10.58;78.59;100140.94;5005845;28;20216;-81
2022/11/07 04:24:33;;;;;;;2.57;1.17;;;;;;;10.61;78.62;100115.63;5006424;28;20221;-82
2022/11/07 04:29:44;;;;;;;2.57;1.40;;;;;;;10.67;78.50;100127.69;5006406;28;20213;-81
2022/11/07 04:32:10;;;;;;;1.27;1.10;;;;;;;10.68;78.15;100150.28;5005822;28;20674;-81
2022/11/07 04:34:37;;;;;;;1.83;1.43;;;;;;;10.70;78.64;100135.44;5005719;28;20208;-81
2022/11/07 04:37:04;;;;;;;1.83;1.37;;;;;;;10.70;78.49;100146.75;5005062;28;20734;-81
2022/11/07 04:39:31;;;;;;;2.00;1.20;;;;;;;10.69;78.13;100158.06;5005489;28;20221;-82
2022/11/07 04:41:58;;;;;;;1.40;1.20;;;;;;;10.78;78.00;100156.97;5005786;28;20232;-82
2022/11/07 04:44:25;;;;;;;2.27;1.30;;;;;;;10.79;77.67;100176.13;5004710;28;20209;-80
2022/11/07 04:46:52;;;;;;;1.80;1.10;;;;;;;10.80;77.87;100181.31;5005354;28;20235;-83
2022/11/07 04:49:18;;;;;;;1.70;1.10;;;;;;;10.83;77.90;100183.84;5006096;28;20207;-82
2022/11/07 04:51:44;;;;;;;1.70;1.00;;;;;;;10.82;77.38;100187.38;5005049;28;20682;-83
2022/11/07 04:54:12;;;;;;;1.83;1.00;;;;;;;10.84;77.34;100197.75;5005784;28;20820;-81
2022/11/07 04:56:40;;;;;;;2.60;1.10;;;;;;;10.90;77.69;100201.09;5005665;28;20260;-80
2022/11/07 04:59:07;;;;;;;1.87;1.00;;;;;;;10.93;77.74;100200.16;5005101;28;20210;-82
2022/11/07 05:01:34;;;;;;;2.43;1.00;;;;;;;10.82;77.58;100197.81;5004649;28;20206;-80
2022/11/07 05:04:00;;;;;;;4.17;1.00;;;;;;;10.88;77.01;100197.66;5005730;28;20211;-82
2022/11/07 05:06:26;;;;;;;1.37;1.20;;;;;;;10.83;77.66;100196.91;5004139;28;20230;-81
2022/11/07 05:08:53;;;;;;;1.77;1.00;;;;;;;10.87;77.83;100182.88;5004144;28;20229;-80
2022/11/07 05:11:19;;;;;;;3.00;1.60;;;;;;;10.82;77.37;100194.31;5003769;28;20212;-82
2022/11/07 05:13:47;;;;;;;2.07;1.10;;;;;;;10.85;77.98;100191.66;5003323;28;20211;-80
2022/11/07 05:16:16;;;;;;;1.53;1.00;;;;;;;10.77;78.24;100185.75;5002258;28;20240;-82
2022/11/07 05:18:43;;;;;;;1.23;1.13;;;;;;;10.83;77.42;100176.00;5002726;28;20266;-80
2022/11/07 05:21:09;;;;;;;1.97;1.10;;;;;;;10.83;77.73;100173.41;5003146;28;20209;-83
2022/11/07 05:23:35;;;;;;;2.03;1.03;;;;;;;10.73;78.02;100182.34;5003220;28;20235;-81
2022/11/07 05:26:01;;;;;;;1.30;1.10;;;;;;;10.76;77.79;100182.25;5003806;28;20235;-81
2022/11/07 05:28:30;;;;;;;0.93;0.80;;;;;;;10.71;77.88;100169.34;5004337;28;20211;-81
2022/11/07 05:30:59;;;;;;;1.63;1.40;;;;;;;10.69;78.26;100173.72;5003431;28;20206;-79
2022/11/07 05:33:26;;;;;;;1.63;1.07;;;;;;;10.71;78.41;100169.34;5003463;28;20204;-81
2022/11/07 05:35:53;;;;;;;1.27;1.10;;;;;;;10.77;77.96;100167.47;5024854;23;20225;-79
2022/11/07 05:38:19;;;;;;;2.70;1.20;;;;;;;10.73;78.07;100164.94;4973298;28;20208;-80
2022/11/07 05:40:45;;;;;;;3.10;1.30;;;;;;;10.71;78.45;100166.72;4972692;28;21084;-77
2022/11/07 05:43:13;;;;;;;3.67;1.30;;;;;;;10.72;78.26;100165.84;4973739;28;20285;-80
2022/11/07 05:45:41;;;;;;;5.37;1.00;;;;;;;10.72;78.46;100164.97;4973174;28;20207;-80
2022/11/07 05:48:10;;;;;;;1.10;0.80;;;;;;;10.71;78.31;100156.28;4954462;29;20202;-80
2022/11/07 05:50:37;;;;;;;1.60;0.90;;;;;;;10.73;78.34;100158.88;4953186;29;20221;-79
2022/11/07 05:53:04;;;;;;;1.07;1.00;;;;;;;10.78;78.43;100159.59;4954369;29;20703;-80
2022/11/07 05:55:31;;;;;;;1.67;0.93;;;;;;;10.77;78.09;100162.25;4955348;28;20229;-78
2022/11/07 05:57:58;;;;;;;2.47;1.00;;;;;;;10.66;78.29;100159.88;4955322;28;20241;-80
2022/11/07 06:00:25;;;;;;;3.37;0.93;;;;;;;10.68;78.53;100143.31;4955012;29;20207;-79
2022/11/07 06:02:55;;;;;;;1.60;0.83;;;;;;;10.75;78.77;100145.78;4955758;29;20647;-78
2022/11/07 06:05:23;;;;;;;2.60;1.03;;;;;;;10.69;78.57;100155.47;4955991;28;20696;-79
2022/11/07 06:07:50;;;;;;;1.93;1.10;;;;;;;10.64;78.71;100153.84;4957416;28;20712;-79
2022/11/07 06:10:16;;;;;;;3.00;0.90;;;;;;;10.70;78.56;100140.66;4955806;29;20233;-81
2022/11/07 06:12:43;;;;;;;3.80;1.10;;;;;;;10.73;78.58;100146.66;4955514;29;20586;-78
2022/11/07 06:15:10;;;;;;;1.53;1.20;;;;;;;10.76;78.77;100142.25;4955765;29;20205;-81
2022/11/07 06:17:36;;;;;;;2.07;1.33;;;;;;;10.68;78.99;100137.22;4956105;28;20610;-79
2022/11/07 06:20:04;;;;;;;1.73;1.00;;;;;;;10.65;78.86;100147.75;4954939;29;20214;-79
2022/11/07 06:22:32;;;;;;;4.57;1.40;;;;;;;10.59;79.44;100134.84;4955346;29;20675;-79
2022/11/07 06:24:58;;;;;;;3.57;1.80;;;;;;;10.61;79.35;100128.69;4957532;28;20205;-80
2022/11/07 06:27:25;;;;;;;3.27;1.20;;;;;;;10.53;80.13;100108.00;4955730;28;20238;-79
2022/11/07 06:29:51;;;;;;;4.43;1.23;;;;;;;10.51;80.33;100101.94;4955031;29;20711;-79
2022/11/07 06:32:18;;;;;;;1.80;1.20;;;;;;;10.47;80.32;100095.09;4956124;29;20225;-80
2022/11/07 06:34:44;;;;;;;3.97;1.27;;;;;;;10.57;79.98;100093.13;4955770;29;20222;-82
2022/11/07 06:37:10;;;;;;;1.37;1.20;;;;;;;10.61;80.21;100097.38;4955675;28;20245;-80
2022/11/07 06:39:38;;;;;;;2.10;1.17;;;;;;;10.63;80.71;100094.72;4955484;29;20207;-81
2022/11/07 06:42:05;;;;;;;2.77;1.20;;;;;;;10.60;80.44;100106.06;4955900;29;20221;-81
2022/11/07 06:44:31;;;;;;;1.23;1.10;;;;;;;10.52;80.50;100108.91;4955892;29;20249;-79
2022/11/07 06:46:58;;;;;;;3.53;1.83;;;;;;;10.62;80.51;100096.47;4956290;28;20235;-79
2022/11/07 06:49:24;;;;;;;2.40;2.20;;;;;;;10.62;80.46;100108.66;4955516;28;20212;-80
2022/11/07 06:51:51;;;;;;;11.03;1.80;;;;;;;10.64;80.03;100122.53;4956157;29;20206;-80
2022/11/07 06:54:17;;;;;;;1.23;1.10;;;;;;;10.63;80.33;100126.91;4956396;29;20210;-80
2022/11/07 06:56:45;;;;;;;1.73;1.20;;;;;;;10.63;80.19;100119.06;4954539;28;20231;-80
2022/11/07 06:59:11;;;;;;;1.93;1.47;;;;;;;10.52;80.73;100116.72;4954501;29;20221;-79
2022/11/07 07:01:41;;;;;;;2.30;1.10;;;;;;;10.53;80.81;100112.38;4957758;29;20211;-80
2022/11/07 07:04:09;;;;;;;1.77;1.07;;;;;;;10.56;80.55;100116.63;4965813;29;20230;-80
2022/11/07 07:06:36;;;;;;;1.57;0.90;;;;;;;10.54;80.97;100108.84;4965454;28;20231;-79
2022/11/07 07:09:05;;;;;;;2.20;1.17;;;;;;;10.57;80.80;100113.16;4963540;29;20205;-80
2022/11/07 07:11:32;;;;;;;1.73;0.93;;;;;;;10.63;80.91;100106.00;4963925;28;20211;-80
2022/11/07 07:13:59;;;;;;;5.47;4.83;;;;;;;10.65;81.17;100108.59;4958059;29;20215;-79
2022/11/07 07:16:26;;;;;;;3.90;2.20;;;;;;;10.67;81.27;100112.03;4957011;28;20227;-77
2022/11/07 07:18:52;;;;;;;2.50;1.57;;;;;;;10.71;80.79;100113.66;4956682;29;20213;-78
2022/11/07 07:21:19;;;;;;;2.47;1.50;;;;;;;10.75;80.81;100117.91;4956166;29;20224;-78
2022/11/07 07:23:45;;;;;;;2.43;0.93;;;;;;;10.72;80.25;100133.63;4956696;29;20219;-78
2022/11/07 07:26:13;;;;;;;3.33;1.70;;;;;;;10.84;80.18;100148.16;4955916;28;20235;-78
2022/11/07 07:28:40;;;;;;;5.80;1.50;;;;;;;10.84;80.10;100154.25;4956583;29;20205;-78
2022/11/07 07:31:20;;;;;;;2.00;1.37;;;;;;;10.91;80.23;100165.38;4955946;29;20218;-79
2022/11/07 07:33:48;;;;;;;1.63;1.30;;;;;;;10.87;79.95;100172.44;4956306;29;20212;-78
2022/11/07 07:36:15;;;;;;;1.10;1.00;;;;;;;10.90;79.60;100172.38;4956123;28;20257;-78
2022/11/07 07:38:41;;;;;;;1.83;1.50;;;;;;;11.00;79.64;100177.34;4956053;28;20213;-78
2022/11/07 07:41:08;;;;;;;2.53;1.07;;;;;;;11.07;79.96;100177.16;4956099;29;20209;-78
2022/11/07 07:43:36;;;;;;;1.60;1.07;;;;;;;11.10;79.40;100182.31;4956829;28;20297;-77
2022/11/07 07:46:04;;;;;;;1.73;0.93;;;;;;;11.10;79.28;100197.13;4956637;28;20245;-78
2022/11/07 07:48:32;;;;;;;2.93;1.63;;;;;;;11.07;79.66;100197.19;4957351;29;20205;-81
2022/11/07 07:50:58;;;;;;;3.90;1.20;;;;;;;11.11;79.35;100202.31;4956268;29;20207;-79
2022/11/07 07:53:25;;;;;;;3.10;1.30;;;;;;;11.05;79.14;100210.28;4956710;29;20641;-78
2022/11/07 07:55:55;;;;;;;1.23;1.10;;;;;;;11.09;79.62;100209.31;4956691;28;20796;-78
2022/11/07 07:58:22;;;;;;;3.43;1.17;;;;;;;11.16;79.36;100211.78;4956723;28;20210;-79
2022/11/07 08:00:51;;;;;;;2.13;1.33;;;;;;;11.17;79.61;100213.50;4955642;29;20211;-78
2022/11/07 08:03:18;;;;;;;2.97;1.23;;;;;;;11.20;79.62;100202.97;4955911;29;20210;-78
2022/11/07 08:05:52;;;;;;;3.57;1.20;;;;;;;11.19;78.80;100219.56;4955488;28;20232;-78
2022/11/07 08:08:19;;;;;;;1.50;1.10;;;;;;;11.12;78.90;100235.38;4956282;29;20204;-78
2022/11/07 08:10:52;;;;;;;2.73;1.10;;;;;;;11.14;79.08;100235.34;4955762;29;20223;-79
2022/11/07 08:13:18;;;;;;;1.90;1.10;;;;;;;11.28;78.94;100241.09;4956408;29;20210;-78
2022/11/07 08:15:45;;;;;;;4.30;1.70;;;;;;;11.32;78.53;100242.72;4955470;28;20222;-79
2022/11/07 08:18:11;;;;;;;2.23;1.03;;;;;;;11.29;78.07;100261.06;4954744;28;20588;-79
2022/11/07 08:20:38;;;;;;;1.20;1.03;;;;;;;11.33;78.70;100261.88;4955586;29;20221;-79
2022/11/07 08:23:08;;;;;;;2.50;1.30;;;;;;;11.38;79.22;100256.50;4955726;29;20692;-78
2022/11/07 08:25:35;;;;;;;1.70;1.00;;;;;;;11.43;79.00;100249.44;4955336;29;20201;-78
2022/11/07 08:28:02;;;;;;;3.47;1.57;;;;;;;11.43;78.96;100257.25;4955883;28;20237;-78
2022/11/07 08:30:30;;;;;;;3.33;1.30;;;;;;;11.50;78.88;100251.84;4955167;29;20209;-78
2022/11/07 08:32:59;;;;;;;1.40;1.27;;;;;;;11.56;78.57;100250.84;4956139;29;20584;-79
2022/11/07 08:35:25;;;;;;;2.23;1.40;;;;;;;11.66;78.69;100249.69;4955404;29;20210;-78
2022/11/07 08:37:52;;;;;;;2.47;1.30;;;;;;;11.71;78.61;100268.75;4955265;28;20238;-79
2022/11/07 08:40:20;;;;;;;4.63;1.43;;;;;;;11.68;77.97;100281.88;4955873;29;20216;-82
2022/11/07 08:42:47;;;;;;;3.93;1.87;;;;;;;11.74;78.26;100288.72;4956131;29;20206;-78
2022/11/07 08:45:13;;;;;;;4.70;1.30;;;;;;;11.76;77.48;100286.91;4955865;29;20230;-82
2022/11/07 08:47:39;;;;;;;2.80;1.30;;;;;;;11.68;77.27;100315.88;4956687;28;20229;-79
2022/11/07 08:50:06;;;;;;;2.50;1.30;;;;;;;11.72;77.63;100309.66;4954901;28;20221;-79
2022/11/07 08:52:34;;;;;;;1.80;1.00;;;;;;;11.79;77.71;100307.72;4954603;29;20212;-79
2022/11/07 08:55:01;;;;;;;3.07;1.43;;;;;;;11.75;77.53;100310.47;4955073;29;20239;-77
2022/11/07 08:57:29;;;;;;;2.47;1.73;;;;;;;11.84;77.70;100318.94;4954283;28;20226;-81
2022/11/07 08:59:55;;;;;;;1.87;1.20;;;;;;;11.93;77.37;100299.56;4954539;29;20221;-79
2022/11/07 09:02:22;;;;;;;3.67;1.27;;;;;;;11.91;77.41;100302.25;4955009;29;20222;-78
2022/11/07 09:04:48;;;;;;;1.37;0.90;;;;;;;11.95;77.20;100300.38;4954680;29;20218;-79
2022/11/07 09:07:15;;;;;;;2.23;1.10;;;;;;;11.99;77.09;100309.00;4955254;28;20239;-79
2022/11/07 09:09:41;;;;;;;3.40;1.50;;;;;;;11.97;77.41;100316.03;4954695;29;20597;-80
2022/11/07 09:12:08;;;;;;;1.23;0.90;;;;;;;11.95;77.06;100305.59;4956436;28;20296;-79
2022/11/07 09:14:36;;;;;;;1.13;1.03;;;;;;;11.99;77.45;100312.50;4956168;29;20217;-79
2022/11/07 09:17:02;;;;;;;2.33;1.30;;;;;;;12.09;77.64;100293.03;4956684;28;20230;-79
2022/11/07 09:19:30;;;;;;;4.20;1.93;;;;;;;12.11;76.96;100301.69;4955875;29;20209;-78
2022/11/07 09:21:57;;;;;;;2.20;0.90;;;;;;;12.11;76.08;100320.00;4955567;29;20211;-79
2022/11/07 09:24:23;;;;;;;1.80;1.20;;;;;;;12.23;76.99;100316.19;4956332;29;20216;-79
2022/11/07 09:26:50;;;;;;;3.93;1.43;;;;;;;12.30;76.02;100329.97;4954943;28;20238;-82
2022/11/07 09:29:16;;;;;;;2.13;1.70;;;;;;;12.23;77.18;100323.16;4974241;28;20222;-80
2022/11/07 09:31:44;;;;;;;3.07;1.20;;;;;;;12.26;76.38;100334.41;4974340;28;20206;-80
2022/11/07 09:34:11;;;;;;;5.17;1.73;;;;;;;12.40;76.90;100327.94;4975038;28;20209;-79
2022/11/07 09:36:37;;;;;;;3.53;1.57;;;;;;;12.31;76.33;100326.47;4960069;28;20242;-78
2022/11/07 09:39:04;;;;;;;3.43;1.17;;;;;;;12.43;76.42;100331.34;4955725;29;20210;-80
2022/11/07 09:41:44;;;;;;;1.53;1.20;;;;;;;12.47;75.76;100353.06;4955412;29;20225;-79
2022/11/07 09:44:21;;;;;;;2.67;1.20;;;;;;;12.54;75.68;100349.34;4955421;29;20210;-78
2022/11/07 09:47:01;;;;;;;4.73;1.20;;;;;;;12.56;75.72;100357.16;4955803;28;20272;-80
2022/11/07 09:49:34;;;;;;;1.30;1.03;;;;;;;12.51;75.30;100378.25;4955544;28;20213;-81
2022/11/07 09:52:08;;;;;;;1.83;1.20;;;;;;;12.60;75.53;100370.13;4955193;29;20207;-77
2022/11/07 09:54:40;;;;;;;2.47;1.10;;;;;;;12.64;75.41;100378.75;4955924;29;20214;-78
2022/11/07 09:57:14;;;;;;;2.67;1.00;;;;;;;12.73;75.34;100359.31;4955405;28;20238;-79
2022/11/07 09:59:44;;;;;;;2.87;1.37;;;;;;;12.80;75.43;100363.47;4955786;29;20214;-81
2022/11/07 10:02:15;;;;;;;3.20;1.43;;;;;;;12.79;74.49;100380.94;4954292;28;20226;-78
2022/11/07 10:04:42;;;;;;;2.63;1.30;;;;;;;12.85;74.47;100388.63;4956164;29;20207;-78
2022/11/07 10:07:20;;;;;;;6.27;1.40;;;;;;;12.89;74.47;100392.00;4955807;28;20733;-80
2022/11/07 10:09:53;;;;;;;2.03;1.00;;;;;;;12.88;74.21;100409.50;4955870;29;20214;-81
2022/11/07 10:12:43;;;;;;;4.27;2.13;;;;;;;12.94;74.43;100403.19;4956033;29;20222;-78
2022/11/07 10:15:17;;;;;;;3.20;1.20;;;;;;;12.93;73.73;100426.84;4955783;29;20222;-80
2022/11/07 10:17:53;;;;;;;2.57;1.00;;;;;;;12.96;73.81;100409.25;5038274;23;20747;-79
2022/11/07 10:20:32;;;;;;;2.67;1.40;;;;;;;12.94;73.78;100416.28;4993340;28;20672;-79
2022/11/07 10:23:09;;;;;;;2.67;1.20;;;;;;;13.03;73.33;100434.38;4993540;28;20217;-79
2022/11/07 10:25:45;;;;;;;4.10;1.43;;;;;;;13.11;73.60;100442.03;4994244;28;20216;-79
2022/11/07 10:28:16;;;;;;;2.83;1.40;;;;;;;13.15;73.01;100451.50;4287110;28;10000768;-80
2022/11/07 10:30:46;;;;;;;3.20;1.00;;;;;;;13.16;73.96;100462.84;4971428;28;20234;-79
2022/11/07 10:33:25;;;;;;;2.03;1.20;;;;;;;13.19;73.08;100468.00;4971120;28;20222;-78
2022/11/07 10:35:56;;;;;;;2.20;1.00;;;;;;;13.27;72.83;100464.25;4970028;28;20217;-79
2022/11/07 10:38:26;;;;;;;3.37;1.10;;;;;;;13.36;73.85;100459.66;4971229;28;20214;-78
2022/11/07 10:40:53;;;;;;;2.07;1.17;;;;;;;13.37;72.74;100449.13;4970498;28;20202;-80
2022/11/07 10:43:29;;;;;;;4.27;1.20;;;;;;;13.43;73.24;100458.59;4974702;28;20229;-79
2022/11/07 10:45:56;;;;;;;3.27;1.60;;;;;;;13.39;73.00;100478.78;4970715;28;20208;-81
2022/11/07 10:48:24;;;;;;;2.53;1.20;;;;;;;13.43;72.93;100477.78;4975161;28;20236;-79
2022/11/07 10:50:52;;;;;;;1.73;1.20;;;;;;;13.43;72.21;100501.38;4974369;28;20223;-79
2022/11/07 10:53:20;;;;;;;3.20;1.20;;;;;;;13.46;72.20;100490.81;4975126;28;20219;-80
2022/11/07 10:55:48;;;;;;;3.00;1.43;;;;;;;13.42;72.29;100509.28;4975337;28;20215;-79
2022/11/07 10:58:19;;;;;;;2.53;2.07;;;;;;;13.48;72.15;100506.53;4974950;28;20555;-78
2022/11/07 11:00:57;;;;;;;4.33;1.30;;;;;;;13.55;72.40;100507.19;4974815;28;20214;-79
2022/11/07 11:03:29;;;;;;;4.53;1.63;;;;;;;13.49;72.15;100500.34;4974915;28;20210;-80
2022/11/07 11:05:55;;;;;;;3.60;1.30;;;;;;;13.58;72.21;100505.34;4975234;28;20219;-79
2022/11/07 11:08:25;;;;;;;3.17;2.00;;;;;;;13.61;72.04;100499.97;4973590;28;20242;-79
2022/11/07 11:10:51;;;;;;;3.20;2.50;;;;;;;13.53;71.59;100504.59;4973451;28;20298;-78
2022/11/07 11:13:27;;;;;;;2.50;1.50;;;;;;;13.45;71.18;100517.94;4973848;28;20226;-79
2022/11/07 11:15:55;;;;;;;3.60;1.30;;;;;;;13.54;71.61;100508.06;4975887;28;20220;-79
2022/11/07 11:18:22;;;;;;;8.10;6.43;;;;;;;13.53;71.90;100498.50;4973733;28;20214;-79
2022/11/07 11:20:57;;;;;;;3.20;2.07;;;;;;;13.53;71.54;100495.88;4974216;28;20211;-79
2022/11/07 11:23:26;;;;;;;4.17;1.60;;;;;;;13.51;72.08;100503.78;4974340;28;20216;-80
2022/11/07 11:26:00;;;;;;;2.57;1.60;;;;;;;13.56;72.28;100491.41;4974858;28;20211;-79
2022/11/07 11:28:32;;;;;;;4.60;1.53;;;;;;;13.46;72.12;100513.56;4973732;28;20230;-79
2022/11/07 11:31:03;;;;;;;3.30;0.90;;;;;;;13.47;72.79;100487.28;4974243;28;20226;-80
2022/11/07 11:33:36;;;;;;;2.30;1.10;;;;;;;13.47;72.70;100465.44;4975246;28;20211;-79
2022/11/07 11:36:11;;;;;;;2.43;1.47;;;;;;;13.47;73.13;100466.31;4975232;28;20225;-80
2022/11/07 11:38:38;;;;;;;3.07;1.23;;;;;;;13.46;73.15;100450.63;4974095;28;20717;-79
2022/11/07 11:41:17;;;;;;;2.97;1.27;;;;;;;13.51;73.56;100449.56;4974695;28;20217;-81
2022/11/07 11:43:48;;;;;;;4.63;1.70;;;;;;;13.58;73.45;100441.53;4974418;28;20213;-80
2022/11/07 11:46:23;;;;;;;2.73;1.00;;;;;;;13.67;72.77;100447.31;4973204;28;20227;-79
2022/11/07 11:48:54;;;;;;;2.97;1.03;;;;;;;13.79;73.00;100434.72;4971300;28;20203;-79